DNAA/ABV METAR and TAF weather

Enter ICAO airport designator
Station Type Date Time Source
DNAA METAR 2018/04/19 01:00 UTC NOAA

DNAA 190100Z 09003KT CAVOK 28/20 Q1013 NOSIG


Station Type Date Time Source
DNAA Decoded METAR 2018/04/19 01:00 UTC NOAA

Station name not available
Apr 18, 2018 - 09:00 PM EDT / 2018.04.19 0100 UTC
Wind: from the E (090 degrees) at 3 MPH (3 KT):0
Visibility: greater than 7 mile(s):0
Temperature: 82 F (28 C)
Dew Point: 68 F (20 C)
Relative Humidity: 61%
Pressure (altimeter): 29.91 in. Hg (1013 hPa)
ob: DNAA 190100Z 09003KT CAVOK 28/20 Q1013 NOSIG
cycle: 1

Station Type Date Time Source
DNAA TAF 2018/04/19 12:21 UTC NOAA

TAF DNAA 190940Z 1912/2018 24006KT 9999 BKN012
TEMPO 1915/1920 TS SCT012 FEW020CB PROB30
TEMPO 1916/1919 06022G35KT 5000 -TSRA SQ BKN008 BECIMG 1921/1923 18004KT CAVOK


Example: see airport list